Time;durP1;ratioP1;P1;durP2;ratioP2;P2;SDS_P1;SDS_P2;PMS_P1;PMS_P2;Temp;Humidity;BMP_temperature;BMP_pressure;BME280_temperature;BME280_humidity;BME280_pressure;Samples;Min_cycle;Max_cycle;Signal;HPM_P1;HPM_P2
2024/01/28 00:00:51;;;;;;;14.65;8.00;;;1.30;99.90;;;;;;4944898;29;20050;-75
2024/01/28 00:03:26;;;;;;;14.77;8.02;;;1.20;99.90;;;;;;4925264;29;20035;-79
2024/01/28 00:05:52;;;;;;;16.95;9.27;;;1.20;99.90;;;;;;4929795;29;20038;-78
2024/01/28 00:08:18;;;;;;;18.00;8.15;;;1.10;99.90;;;;;;4945212;29;20043;-78
2024/01/28 00:10:43;;;;;;;17.65;8.52;;;1.10;99.90;;;;;;4945040;29;20082;-77
2024/01/28 00:13:51;;;;;;;15.43;8.25;;;1.00;99.90;;;;;;4928356;29;20071;-78
2024/01/28 00:16:17;;;;;;;17.60;8.40;;;1.00;99.90;;;;;;4944888;29;20348;-78
2024/01/28 00:18:43;;;;;;;14.95;7.72;;;1.00;99.90;;;;;;4944960;29;20039;-77
2024/01/28 00:21:35;;;;;;;16.98;8.45;;;0.90;99.90;;;;;;4927763;29;20292;-78
2024/01/28 00:24:04;;;;;;;15.07;8.40;;;0.90;99.90;;;;;;4928055;29;20035;-76
2024/01/28 00:27:05;;;;;;;17.58;8.38;;;0.90;99.90;;;;;;4926946;29;20225;-76
2024/01/28 00:29:31;;;;;;;19.33;9.38;;;0.90;99.90;;;;;;4908546;29;20024;-76
2024/01/28 00:31:58;;;;;;;16.92;8.90;;;0.80;99.90;;;;;;4925692;29;20238;-76
2024/01/28 00:34:27;;;;;;;17.13;9.25;;;0.80;99.90;;;;;;4909004;29;20233;-76
2024/01/28 00:36:56;;;;;;;16.92;8.75;;;0.70;99.90;;;;;;4926014;29;20063;-77
2024/01/28 00:39:22;;;;;;;16.38;8.90;;;0.60;99.90;;;;;;4924970;29;20116;-77
2024/01/28 00:41:47;;;;;;;19.02;8.05;;;0.60;99.90;;;;;;4934387;29;20047;-76
2024/01/28 00:44:13;;;;;;;16.42;8.18;;;0.50;99.90;;;;;;4927225;29;20098;-76
2024/01/28 00:46:39;;;;;;;16.60;9.10;;;0.50;99.90;;;;;;4944152;29;20105;-76
2024/01/28 00:49:04;;;;;;;16.23;8.38;;;0.50;99.90;;;;;;4928007;29;20023;-78
2024/01/28 00:52:23;;;;;;;;;;;;;;;;;;;;;
2024/01/28 00:54:52;;;;;;;20.23;8.95;;;0.40;99.90;;;;;;4926942;29;20102;-76
2024/01/28 00:57:17;;;;;;;14.52;8.23;;;0.30;99.90;;;;;;4944455;29;20040;-77
2024/01/28 00:59:43;;;;;;;17.73;8.45;;;0.30;99.90;;;;;;4944134;29;20054;-78
2024/01/28 01:02:09;;;;;;;14.93;8.02;;;0.30;99.90;;;;;;4927776;29;20191;-76
2024/01/28 01:04:34;;;;;;;16.73;8.65;;;0.20;99.90;;;;;;4943293;29;20302;-77
2024/01/28 01:07:00;;;;;;;18.13;8.98;;;0.20;99.90;;;;;;4927843;29;20028;-76
2024/01/28 01:09:26;;;;;;;18.15;8.15;;;0.10;99.90;;;;;;4944420;29;20212;-78
2024/01/28 01:11:51;;;;;;;15.85;9.00;;;0.10;99.90;;;;;;4927264;29;20028;-77
2024/01/28 01:14:17;;;;;;;16.52;8.70;;;0.10;99.90;;;;;;4927687;29;20101;-77
2024/01/28 01:16:43;;;;;;;14.60;8.18;;;0.10;99.90;;;;;;4944035;29;20023;-77
2024/01/28 01:19:08;;;;;;;17.77;8.57;;;0.10;99.90;;;;;;4927555;29;20058;-78
2024/01/28 01:21:34;;;;;;;13.65;8.45;;;0.10;99.90;;;;;;4944211;29;20028;-76
2024/01/28 01:23:59;;;;;;;17.13;8.68;;;0.10;99.90;;;;;;4928305;29;20044;-76
2024/01/28 01:26:25;;;;;;;18.83;8.90;;;0.10;99.90;;;;;;4944567;29;20274;-75
2024/01/28 01:28:51;;;;;;;17.08;8.68;;;0.10;99.90;;;;;;4943215;29;20035;-78
2024/01/28 01:31:16;;;;;;;16.05;8.50;;;0.20;99.90;;;;;;4944301;29;20048;-78
2024/01/28 01:33:42;;;;;;;15.18;8.13;;;0.10;99.90;;;;;;4946611;29;20035;-76
2024/01/28 01:36:08;;;;;;;19.27;8.65;;;0.20;99.90;;;;;;4948061;29;20106;-76
2024/01/28 01:38:34;;;;;;;15.48;8.63;;;0.10;99.90;;;;;;4947572;29;20034;-76
2024/01/28 01:40:59;;;;;;;14.98;7.63;;;0.10;99.90;;;;;;4930977;29;20031;-76
2024/01/28 01:43:25;;;;;;;14.63;8.45;;;0.10;99.90;;;;;;4946913;29;20035;-77
2024/01/28 01:45:52;;;;;;;14.38;8.40;;;0.00;99.90;;;;;;4930521;29;20306;-77
2024/01/28 01:48:18;;;;;;;16.27;8.82;;;0.10;99.90;;;;;;4930978;29;20075;-77
2024/01/28 01:50:45;;;;;;;15.40;8.18;;;0.00;99.90;;;;;;4947212;29;20086;-77
2024/01/28 01:53:11;;;;;;;17.00;8.88;;;0.00;99.90;;;;;;4947898;29;20028;-76
2024/01/28 01:55:38;;;;;;;16.85;8.73;;;0.00;99.90;;;;;;4930114;29;20337;-75
2024/01/28 01:58:05;;;;;;;18.52;8.93;;;0.00;99.90;;;;;;4947837;29;20049;-76
2024/01/28 02:00:34;;;;;;;16.63;8.40;;;-0.10;99.90;;;;;;4947117;29;20027;-76
2024/01/28 02:03:03;;;;;;;17.23;8.88;;;-0.10;99.90;;;;;;4947010;29;20221;-76
2024/01/28 02:05:29;;;;;;;16.67;9.13;;;-0.10;99.90;;;;;;4929935;29;20106;-77
2024/01/28 02:07:55;;;;;;;20.20;9.65;;;-0.10;99.90;;;;;;4947606;29;20035;-78
2024/01/28 02:10:22;;;;;;;17.63;9.10;;;-0.10;99.90;;;;;;4947453;29;20059;-76
2024/01/28 02:12:51;;;;;;;17.90;9.07;;;-0.10;99.90;;;;;;4947172;29;20302;-76
2024/01/28 02:15:17;;;;;;;15.60;8.98;;;-0.10;99.90;;;;;;4947101;29;20023;-76
2024/01/28 02:17:43;;;;;;;15.50;9.10;;;-0.10;99.90;;;;;;4929968;29;20028;-76
2024/01/28 02:20:09;;;;;;;19.02;9.40;;;-0.10;99.90;;;;;;4946693;29;20225;-76
2024/01/28 02:22:37;;;;;;;18.33;9.00;;;-0.10;99.90;;;;;;4930113;29;20020;-76
2024/01/28 02:25:06;;;;;;;16.17;8.88;;;-0.20;99.90;;;;;;4930461;29;20027;-76
2024/01/28 02:27:34;;;;;;;17.35;8.50;;;-0.20;99.90;;;;;;4913829;29;20087;-76
2024/01/28 02:29:59;;;;;;;18.55;9.18;;;-0.20;99.90;;;;;;4947220;29;20317;-76
2024/01/28 02:32:25;;;;;;;16.13;8.55;;;-0.20;99.90;;;;;;4947483;29;20051;-76
2024/01/28 02:34:57;;;;;;;15.48;8.73;;;-0.20;99.90;;;;;;4946343;29;20040;-77
2024/01/28 02:37:23;;;;;;;15.27;8.93;;;-0.20;99.90;;;;;;4914727;29;20027;-76
2024/01/28 02:39:48;;;;;;;19.08;9.13;;;-0.20;99.90;;;;;;4929787;29;20044;-77
2024/01/28 02:42:14;;;;;;;14.27;8.93;;;-0.20;99.90;;;;;;4930142;29;20047;-76
2024/01/28 02:44:40;;;;;;;16.58;9.10;;;-0.20;99.90;;;;;;4929218;29;20026;-76
2024/01/28 02:47:06;;;;;;;17.15;9.60;;;-0.30;99.90;;;;;;4929938;29;20027;-76
2024/01/28 02:49:31;;;;;;;17.83;9.13;;;-0.30;99.90;;;;;;4946539;29;20039;-75
2024/01/28 02:51:57;;;;;;;18.63;9.80;;;-0.20;99.90;;;;;;4946488;29;20298;-76
2024/01/28 02:54:23;;;;;;;15.80;9.52;;;-0.30;99.90;;;;;;4946911;29;20372;-76
2024/01/28 02:56:50;;;;;;;17.60;9.95;;;-0.30;99.90;;;;;;4929273;29;20054;-76
2024/01/28 02:59:15;;;;;;;20.05;10.02;;;-0.30;99.90;;;;;;4946828;29;20410;-75
2024/01/28 03:01:48;;;;;;;15.88;10.13;;;-0.30;99.90;;;;;;4945918;29;20036;-76
2024/01/28 03:04:13;;;;;;;16.52;9.77;;;-0.30;99.90;;;;;;4946241;29;20062;-75
2024/01/28 03:06:39;;;;;;;20.13;9.88;;;-0.30;99.90;;;;;;4929576;29;20015;-76
2024/01/28 03:09:05;;;;;;;19.95;9.82;;;-0.30;99.90;;;;;;4914022;29;20155;-75
2024/01/28 03:11:31;;;;;;;16.83;9.73;;;-0.20;99.90;;;;;;4929225;29;20035;-75
2024/01/28 03:13:57;;;;;;;16.58;10.10;;;-0.20;99.90;;;;;;4946359;29;20249;-75
2024/01/28 03:16:23;;;;;;;19.55;10.02;;;-0.20;99.90;;;;;;4946492;29;20035;-75
2024/01/28 03:18:49;;;;;;;16.48;10.30;;;-0.20;99.90;;;;;;4928904;29;20063;-76
2024/01/28 03:21:15;;;;;;;18.25;10.50;;;-0.20;99.90;;;;;;4951324;29;20012;-76
2024/01/28 03:23:41;;;;;;;17.10;10.05;;;-0.20;99.90;;;;;;4946432;29;20047;-75
2024/01/28 03:26:10;;;;;;;18.92;10.27;;;-0.20;99.90;;;;;;4946062;29;20067;-76
2024/01/28 03:28:36;;;;;;;20.38;9.80;;;-0.20;99.90;;;;;;4928736;29;20043;-76
2024/01/28 03:31:01;;;;;;;17.13;9.80;;;-0.30;99.90;;;;;;4945101;29;20083;-75
2024/01/28 03:33:27;;;;;;;16.15;10.20;;;-0.30;99.90;;;;;;4945925;29;20039;-74
2024/01/28 03:35:53;;;;;;;17.55;9.52;;;-0.40;99.90;;;;;;4945430;29;22569;-73
2024/01/28 03:38:19;;;;;;;18.45;9.98;;;-0.40;99.90;;;;;;4945646;29;20118;-74
2024/01/28 03:40:44;;;;;;;17.88;9.77;;;-0.50;99.90;;;;;;4945427;29;20024;-76
2024/01/28 03:43:10;;;;;;;18.80;9.63;;;-0.60;99.90;;;;;;4959928;29;20047;-75
2024/01/28 03:45:36;;;;;;;21.30;10.35;;;-0.60;99.90;;;;;;4964635;29;20297;-75
2024/01/28 03:48:01;;;;;;;17.02;9.73;;;-0.60;99.90;;;;;;4947982;29;20034;-75
2024/01/28 03:50:27;;;;;;;17.80;9.77;;;-0.60;99.90;;;;;;4964932;29;20270;-75
2024/01/28 03:52:53;;;;;;;16.77;9.85;;;-0.60;99.90;;;;;;4953488;29;20028;-75
2024/01/28 03:55:19;;;;;;;20.15;10.38;;;-0.60;99.90;;;;;;4928364;29;20028;-77
2024/01/28 03:57:45;;;;;;;20.33;10.25;;;-0.50;99.90;;;;;;4944888;29;20050;-75
2024/01/28 04:00:12;;;;;;;14.07;9.07;;;-0.50;99.90;;;;;;4928376;29;20043;-76
2024/01/28 04:02:39;;;;;;;16.05;9.35;;;-0.60;99.90;;;;;;4943755;29;20262;-74
2024/01/28 04:05:05;;;;;;;18.75;10.30;;;-0.60;99.90;;;;;;4944438;29;20200;-75
2024/01/28 04:07:31;;;;;;;17.33;10.32;;;-0.60;99.90;;;;;;4944795;29;20099;-75
2024/01/28 04:09:57;;;;;;;22.23;10.68;;;-0.60;99.90;;;;;;4928584;29;20040;-75
2024/01/28 04:12:23;;;;;;;20.40;10.57;;;-0.60;99.90;;;;;;4928597;29;20024;-75
2024/01/28 04:14:49;;;;;;;21.10;10.75;;;-0.60;99.90;;;;;;4941659;29;20035;-76
2024/01/28 04:17:14;;;;;;;21.13;10.70;;;-0.70;99.90;;;;;;4928175;29;20341;-75
2024/01/28 04:19:40;;;;;;;20.45;10.43;;;-0.70;99.90;;;;;;4944894;29;20047;-75
2024/01/28 04:22:09;;;;;;;17.70;9.85;;;-0.70;99.90;;;;;;4928288;29;20031;-75
2024/01/28 04:24:35;;;;;;;16.80;10.35;;;-0.60;99.90;;;;;;4944483;29;20028;-75
2024/01/28 04:27:01;;;;;;;16.55;10.38;;;-0.70;99.90;;;;;;4928366;29;20019;-74
2024/01/28 04:29:30;;;;;;;17.67;9.02;;;-0.70;99.90;;;;;;4944975;29;20325;-75
2024/01/28 04:31:55;;;;;;;18.35;10.75;;;-0.70;99.90;;;;;;4944718;29;20128;-75
2024/01/28 04:34:22;;;;;;;18.80;9.70;;;-0.70;99.90;;;;;;4944939;29;20035;-74
2024/01/28 04:36:48;;;;;;;19.30;9.77;;;-0.70;99.90;;;;;;4944367;29;20035;-75
2024/01/28 04:39:15;;;;;;;19.52;9.60;;;-0.70;99.90;;;;;;4944794;29;20067;-75
2024/01/28 04:41:41;;;;;;;18.80;10.35;;;-0.70;99.90;;;;;;4927617;29;20024;-75
2024/01/28 04:44:07;;;;;;;15.93;10.32;;;-0.70;99.90;;;;;;4928045;29;20024;-75
2024/01/28 04:46:33;;;;;;;17.88;10.07;;;-0.70;99.90;;;;;;4944492;29;20314;-75
2024/01/28 04:49:02;;;;;;;17.40;10.32;;;-0.70;99.90;;;;;;4945091;29;20035;-74
2024/01/28 04:51:30;;;;;;;17.45;10.40;;;-0.70;99.90;;;;;;4908961;29;20088;-76
2024/01/28 04:53:57;;;;;;;19.27;10.27;;;-0.70;99.90;;;;;;4926089;29;20116;-75
2024/01/28 04:56:23;;;;;;;19.35;10.30;;;-0.80;99.90;;;;;;4925732;29;20055;-75
2024/01/28 04:58:48;;;;;;;19.40;10.02;;;-0.80;99.90;;;;;;4925209;29;20055;-75
2024/01/28 05:01:14;;;;;;;16.77;10.30;;;-0.80;99.90;;;;;;4924668;29;20028;-75
2024/01/28 05:03:40;;;;;;;18.98;10.02;;;-0.80;99.90;;;;;;4925288;29;20032;-75
2024/01/28 05:06:05;;;;;;;17.50;10.88;;;-0.80;99.90;;;;;;4924446;29;20218;-75
2024/01/28 05:08:31;;;;;;;20.38;10.43;;;-0.80;99.90;;;;;;4914554;29;20106;-75
2024/01/28 05:10:57;;;;;;;24.67;11.45;;;-0.80;99.90;;;;;;4948568;29;20030;-76
2024/01/28 05:13:23;;;;;;;18.60;10.20;;;-0.80;99.90;;;;;;4948203;29;20079;-74
2024/01/28 05:15:50;;;;;;;20.52;10.75;;;-0.80;99.90;;;;;;4947769;29;20059;-75
2024/01/28 05:18:16;;;;;;;23.60;11.68;;;-0.80;99.90;;;;;;4947303;29;20028;-75
2024/01/28 05:20:42;;;;;;;19.35;11.13;;;-0.90;99.90;;;;;;4943313;29;20032;-74
2024/01/28 05:23:08;;;;;;;21.42;11.30;;;-1.00;99.90;;;;;;4929383;29;20036;-76
2024/01/28 05:25:34;;;;;;;18.65;10.98;;;-1.00;99.90;;;;;;4928439;29;20024;-74
2024/01/28 05:28:00;;;;;;;18.80;10.65;;;-1.00;99.90;;;;;;4945293;29;20035;-74
2024/01/28 05:30:25;;;;;;;20.42;10.98;;;-1.00;99.90;;;;;;4948240;29;20062;-73
2024/01/28 05:32:51;;;;;;;18.77;11.02;;;-1.00;99.90;;;;;;4930729;29;20214;-77
2024/01/28 05:35:17;;;;;;;17.95;10.75;;;-1.00;99.90;;;;;;4931234;29;20246;-74
2024/01/28 05:37:42;;;;;;;18.80;10.35;;;-1.00;99.90;;;;;;4930933;29;20039;-76
2024/01/28 05:40:09;;;;;;;17.58;10.40;;;-1.00;99.90;;;;;;4947834;29;20035;-75
2024/01/28 05:42:35;;;;;;;23.02;11.77;;;-0.90;99.90;;;;;;4947243;29;20042;-75
2024/01/28 05:45:00;;;;;;;19.92;11.98;;;-0.90;99.90;;;;;;4948060;29;20351;-76
2024/01/28 05:47:26;;;;;;;19.77;10.65;;;-0.90;99.90;;;;;;4947889;29;20043;-74
2024/01/28 05:49:52;;;;;;;20.13;10.55;;;-0.90;99.90;;;;;;4930679;29;20043;-74
2024/01/28 05:52:18;;;;;;;20.02;11.02;;;-0.90;99.90;;;;;;4915193;29;20034;-76
2024/01/28 05:54:44;;;;;;;19.25;10.80;;;-0.90;99.90;;;;;;4947305;29;20023;-76
2024/01/28 05:57:10;;;;;;;19.50;10.73;;;-0.80;99.90;;;;;;4947576;29;20034;-74
2024/01/28 05:59:36;;;;;;;17.85;10.55;;;-0.80;99.90;;;;;;4914596;29;20042;-75
2024/01/28 06:02:02;;;;;;;18.55;11.02;;;-0.90;99.90;;;;;;4915174;29;20030;-73
2024/01/28 06:04:28;;;;;;;22.33;11.63;;;-0.90;99.90;;;;;;4946896;29;20027;-74
2024/01/28 06:06:53;;;;;;;17.83;10.75;;;-1.00;99.90;;;;;;4930810;29;20262;-76
2024/01/28 06:09:19;;;;;;;20.45;10.52;;;-1.00;99.90;;;;;;4947725;29;20295;-76
2024/01/28 06:11:46;;;;;;;21.58;12.07;;;-0.90;99.90;;;;;;4947382;29;20024;-74
2024/01/28 06:14:11;;;;;;;19.48;11.30;;;-1.00;99.90;;;;;;4947736;29;20032;-74
2024/01/28 06:16:37;;;;;;;20.30;11.70;;;-1.00;99.90;;;;;;4930282;29;20221;-75
2024/01/28 06:19:04;;;;;;;20.10;11.32;;;-1.00;99.90;;;;;;4929507;29;20047;-75
2024/01/28 06:21:30;;;;;;;20.90;11.48;;;-1.00;99.90;;;;;;4929629;29;20032;-75
2024/01/28 06:23:55;;;;;;;17.63;10.80;;;-1.00;99.90;;;;;;4930420;29;20035;-75
2024/01/28 06:26:21;;;;;;;20.10;11.02;;;-1.00;99.90;;;;;;4930356;29;20321;-74
2024/01/28 06:28:48;;;;;;;20.05;12.13;;;-1.00;99.90;;;;;;4929768;29;20066;-75
2024/01/28 06:31:14;;;;;;;19.98;11.55;;;-1.00;99.90;;;;;;4930050;29;20051;-76
2024/01/28 06:33:41;;;;;;;22.00;11.63;;;-1.00;99.90;;;;;;4914095;29;20031;-74
2024/01/28 06:36:07;;;;;;;22.08;11.88;;;-1.10;99.90;;;;;;4946980;29;20318;-74
2024/01/28 06:38:33;;;;;;;18.85;11.60;;;-1.10;99.90;;;;;;4929388;29;20059;-74
2024/01/28 06:40:59;;;;;;;17.35;11.07;;;-1.10;99.90;;;;;;4930191;29;20182;-73
2024/01/28 06:43:25;;;;;;;19.48;12.05;;;-1.10;99.90;;;;;;4913584;29;20075;-74
2024/01/28 06:45:54;;;;;;;19.00;11.75;;;-1.10;99.90;;;;;;4912098;29;20306;-74
2024/01/28 06:48:21;;;;;;;21.23;12.02;;;-1.10;99.90;;;;;;4932899;29;20035;-74
2024/01/28 06:50:47;;;;;;;19.17;11.63;;;-1.10;99.90;;;;;;4946301;29;20035;-75
2024/01/28 06:53:12;;;;;;;19.35;11.95;;;-1.00;99.90;;;;;;4946844;29;20020;-75
2024/01/28 06:55:38;;;;;;;20.42;11.63;;;-1.00;99.90;;;;;;4929211;29;20135;-76
2024/01/28 06:58:04;;;;;;;20.63;12.10;;;-1.00;99.90;;;;;;4929797;29;20099;-75
2024/01/28 07:00:30;;;;;;;19.40;12.35;;;-1.10;99.90;;;;;;4945860;29;20369;-75
2024/01/28 07:02:56;;;;;;;24.85;13.43;;;-1.10;99.90;;;;;;4929621;29;20024;-74
2024/01/28 07:05:22;;;;;;;20.90;13.15;;;-0.90;99.90;;;;;;4946440;29;20027;-76
2024/01/28 07:07:48;;;;;;;23.42;13.30;;;-0.90;99.90;;;;;;4928890;29;20031;-75
2024/01/28 07:10:14;;;;;;;27.40;13.80;;;-0.80;99.90;;;;;;4929651;29;20051;-74
2024/01/28 07:12:41;;;;;;;22.83;13.57;;;-0.80;99.90;;;;;;4946073;29;20023;-75
2024/01/28 07:15:07;;;;;;;24.17;12.82;;;-0.80;99.90;;;;;;4929194;29;20039;-75
2024/01/28 07:17:33;;;;;;;23.50;13.68;;;-0.80;99.90;;;;;;4945884;29;20306;-74
2024/01/28 07:19:59;;;;;;;22.85;12.07;;;-0.80;99.90;;;;;;4946391;29;20043;-74
2024/01/28 07:22:24;;;;;;;22.02;12.98;;;-0.70;99.90;;;;;;4946414;29;20094;-74
2024/01/28 07:24:50;;;;;;;19.77;12.32;;;-0.70;99.90;;;;;;4932604;29;20114;-74
2024/01/28 07:27:16;;;;;;;22.13;11.93;;;-0.70;99.90;;;;;;4929324;29;20032;-75
2024/01/28 07:29:43;;;;;;;23.65;12.60;;;-0.70;99.90;;;;;;4928746;29;20031;-76
2024/01/28 07:32:13;;;;;;;22.58;12.45;;;-0.70;99.90;;;;;;4946441;29;20058;-75
2024/01/28 07:34:39;;;;;;;19.20;12.20;;;-0.60;99.90;;;;;;4945208;29;20031;-75
2024/01/28 07:37:05;;;;;;;19.15;11.85;;;-0.50;99.90;;;;;;4931062;29;20020;-76
2024/01/28 07:39:31;;;;;;;20.35;12.13;;;-0.40;99.90;;;;;;4928258;29;20059;-74
2024/01/28 07:41:58;;;;;;;21.48;12.90;;;-0.40;99.90;;;;;;4928976;29;20038;-74
2024/01/28 07:44:24;;;;;;;22.08;13.27;;;-0.30;99.90;;;;;;4945921;29;20046;-75
2024/01/28 07:46:51;;;;;;;22.38;12.77;;;-0.30;99.90;;;;;;4928354;29;20028;-75
2024/01/28 07:49:17;;;;;;;21.15;13.35;;;-0.20;99.90;;;;;;4945409;29;20083;-75
2024/01/28 07:51:46;;;;;;;19.50;12.23;;;-0.10;99.90;;;;;;4928103;29;20020;-75
2024/01/28 07:54:12;;;;;;;22.83;13.48;;;0.00;99.90;;;;;;4945482;29;20032;-74
2024/01/28 07:56:37;;;;;;;24.80;14.02;;;0.00;99.90;;;;;;4944962;29;20027;-75
2024/01/28 07:59:03;;;;;;;25.85;13.90;;;0.10;99.90;;;;;;4928033;29;20077;-73
2024/01/28 08:01:30;;;;;;;25.48;14.45;;;0.10;99.90;;;;;;4945113;29;20023;-74
2024/01/28 08:03:59;;;;;;;26.60;14.68;;;0.20;99.90;;;;;;4928271;29;20036;-75
2024/01/28 08:06:31;;;;;;;25.60;14.15;;;0.20;99.90;;;;;;4928441;29;20051;-76
2024/01/28 08:08:57;;;;;;;22.90;13.55;;;0.30;99.90;;;;;;4928672;29;20114;-76
2024/01/28 08:11:22;;;;;;;20.05;12.40;;;0.40;99.90;;;;;;4928306;29;20035;-76
2024/01/28 08:13:48;;;;;;;22.08;12.02;;;0.50;99.90;;;;;;4927922;29;20027;-75
2024/01/28 08:16:14;;;;;;;19.75;12.10;;;0.60;99.90;;;;;;4928535;29;20032;-74
2024/01/28 08:18:40;;;;;;;20.85;12.52;;;0.70;99.90;;;;;;4911054;29;20048;-78
2024/01/28 08:21:06;;;;;;;21.02;12.88;;;0.70;99.90;;;;;;4928930;29;20301;-75
2024/01/28 08:23:33;;;;;;;21.02;11.48;;;0.70;99.90;;;;;;4924484;29;20031;-74
2024/01/28 08:25:59;;;;;;;20.13;12.13;;;0.90;99.90;;;;;;4926079;29;20048;-75
2024/01/28 08:28:24;;;;;;;19.17;12.07;;;0.90;99.90;;;;;;4926175;29;20127;-75
2024/01/28 08:30:50;;;;;;;20.45;11.50;;;1.00;99.90;;;;;;4925346;29;20115;-75
2024/01/28 08:33:16;;;;;;;19.50;11.45;;;1.00;99.90;;;;;;4942177;29;20311;-76
2024/01/28 08:35:43;;;;;;;19.13;10.73;;;1.10;99.90;;;;;;4944618;29;20055;-75
2024/01/28 08:38:09;;;;;;;17.65;11.05;;;1.20;99.90;;;;;;4945119;29;20038;-75
2024/01/28 08:40:35;;;;;;;15.23;10.30;;;1.20;99.90;;;;;;4927817;29;20059;-76
2024/01/28 08:43:04;;;;;;;19.10;11.10;;;1.30;99.90;;;;;;4944728;29;20290;-74
2024/01/28 08:45:30;;;;;;;20.17;10.52;;;1.30;99.90;;;;;;4944329;29;20128;-76
2024/01/28 08:47:55;;;;;;;15.63;10.32;;;1.30;99.90;;;;;;4912257;29;20034;-73
2024/01/28 08:50:23;;;;;;;16.95;10.85;;;1.40;99.90;;;;;;4911760;29;20047;-75
2024/01/28 08:52:51;;;;;;;18.23;10.98;;;1.40;99.90;;;;;;4927585;29;20040;-76
2024/01/28 08:55:17;;;;;;;21.42;10.77;;;1.50;99.90;;;;;;4927933;29;20038;-75
2024/01/28 08:57:42;;;;;;;18.20;10.50;;;1.50;99.90;;;;;;4944644;29;20290;-76
2024/01/28 09:00:11;;;;;;;17.80;10.63;;;1.60;99.90;;;;;;4944971;29;20098;-74
2024/01/28 09:02:38;;;;;;;18.83;11.52;;;1.60;99.90;;;;;;4927270;29;20095;-73
2024/01/28 09:05:04;;;;;;;16.15;10.15;;;1.70;99.90;;;;;;4944510;29;20050;-75
2024/01/28 09:07:30;;;;;;;18.60;11.25;;;1.80;99.90;;;;;;4943412;29;20194;-75
2024/01/28 09:09:56;;;;;;;18.10;10.05;;;1.90;99.90;;;;;;4944474;29;20066;-74
2024/01/28 09:12:24;;;;;;;16.85;9.50;;;1.90;99.90;;;;;;4944805;29;20287;-74
2024/01/28 09:14:49;;;;;;;15.82;10.10;;;2.00;99.90;;;;;;4926957;29;20035;-76
2024/01/28 09:17:15;;;;;;;16.38;10.00;;;2.00;99.90;;;;;;4944367;29;20040;-74
2024/01/28 09:19:41;;;;;;;14.57;10.15;;;2.10;99.90;;;;;;4927270;29;20031;-74
2024/01/28 09:22:28;;;;;;;16.45;9.20;;;2.20;99.90;;;;;;4927414;29;20028;-75
2024/01/28 09:24:54;;;;;;;15.85;9.75;;;2.30;99.90;;;;;;4927667;29;20031;-76
2024/01/28 09:27:22;;;;;;;16.42;9.15;;;2.40;99.90;;;;;;4911399;29;20099;-76
2024/01/28 09:30:06;;;;;;;16.02;8.98;;;2.60;99.90;;;;;;4924027;29;20328;-75
2024/01/28 09:32:32;;;;;;;14.50;9.63;;;2.70;99.90;;;;;;4910222;29;20055;-74
2024/01/28 09:34:58;;;;;;;14.45;8.48;;;2.90;99.90;;;;;;4944086;29;20012;-75
2024/01/28 09:37:24;;;;;;;14.07;8.65;;;3.00;99.90;;;;;;4944491;29;20043;-75
2024/01/28 09:39:49;;;;;;;11.23;7.95;;;3.10;99.90;;;;;;4943677;29;20047;-74
2024/01/28 09:42:36;;;;;;;13.85;8.35;;;3.10;99.90;;;;;;4943434;29;20111;-74
2024/01/28 09:45:02;;;;;;;13.70;8.00;;;3.30;99.90;;;;;;4944296;29;20036;-76
2024/01/28 09:47:32;;;;;;;15.55;8.98;;;3.40;99.90;;;;;;4943905;29;20031;-77
2024/01/28 09:50:00;;;;;;;13.93;8.85;;;3.50;99.90;;;;;;4944617;29;20090;-74
2024/01/28 09:52:27;;;;;;;15.15;8.57;;;3.60;99.90;;;;;;4943399;29;20031;-73
2024/01/28 09:54:54;;;;;;;13.38;7.60;;;3.70;99.90;;;;;;4945421;29;20226;-75
2024/01/28 09:57:20;;;;;;;11.68;7.50;;;3.80;99.90;;;;;;4947607;29;20210;-74
2024/01/28 09:59:47;;;;;;;11.40;7.38;;;3.90;99.90;;;;;;4946724;29;20226;-74
2024/01/28 10:02:15;;;;;;;14.98;7.53;;;4.00;99.90;;;;;;4947194;29;20035;-74
2024/01/28 10:04:42;;;;;;;11.88;7.40;;;4.10;99.90;;;;;;4946464;29;20043;-75
2024/01/28 10:07:09;;;;;;;12.32;7.28;;;4.30;99.90;;;;;;4947150;29;20216;-73
2024/01/28 10:09:35;;;;;;;11.90;7.50;;;4.40;99.90;;;;;;4946493;29;20034;-76
2024/01/28 10:12:01;;;;;;;15.02;8.30;;;4.50;99.90;;;;;;4947220;29;20023;-76
2024/01/28 10:14:27;;;;;;;12.23;7.65;;;4.60;99.90;;;;;;4946858;29;20031;-76
2024/01/28 10:16:54;;;;;;;10.90;7.13;;;4.60;99.90;;;;;;4947103;29;20285;-75
2024/01/28 10:19:20;;;;;;;19.70;10.27;;;4.70;99.90;;;;;;4946997;29;20090;-75
2024/01/28 10:21:46;;;;;;;10.63;7.25;;;4.80;99.90;;;;;;4946225;29;20107;-78
2024/01/28 10:24:14;;;;;;;12.35;7.05;;;4.90;99.90;;;;;;4947293;29;20039;-73
2024/01/28 10:26:40;;;;;;;12.52;7.82;;;5.10;99.90;;;;;;4946381;29;20302;-73
2024/01/28 10:29:08;;;;;;;14.32;7.35;;;5.10;99.90;;;;;;4947172;29;20028;-76
2024/01/28 10:31:34;;;;;;;10.48;7.00;;;5.20;99.90;;;;;;4946205;29;20337;-74
2024/01/28 10:34:00;;;;;;;12.45;7.90;;;5.30;99.90;;;;;;4929715;29;20028;-74
2024/01/28 10:36:26;;;;;;;13.13;7.50;;;5.40;99.90;;;;;;4947121;29;20023;-76
2024/01/28 10:38:54;;;;;;;13.98;7.97;;;5.50;99.90;;;;;;4945321;29;20044;-76
2024/01/28 10:41:21;;;;;;;12.80;7.57;;;5.60;99.90;;;;;;4947102;29;20019;-75
2024/01/28 10:44:06;;;;;;;13.73;7.13;;;5.70;99.90;;;;;;4946346;29;20069;-76
2024/01/28 10:46:44;;;;;;;11.13;7.35;;;5.80;98.90;;;;;;4946132;29;20036;-75
2024/01/28 10:49:10;;;;;;;11.40;7.00;;;5.90;98.30;;;;;;4946660;29;20031;-77
2024/01/28 10:51:41;;;;;;;11.82;6.70;;;6.10;97.90;;;;;;4946029;29;20027;-77
2024/01/28 10:54:07;;;;;;;11.00;6.82;;;6.20;97.50;;;;;;4947225;29;20030;-75
2024/01/28 10:56:35;;;;;;;10.10;6.72;;;6.40;97.40;;;;;;4945664;29;20099;-76
2024/01/28 10:59:02;;;;;;;10.85;6.68;;;6.60;97.00;;;;;;4946444;29;20047;-76
2024/01/28 11:01:28;;;;;;;12.23;6.50;;;6.80;96.70;;;;;;4946243;29;20098;-75
2024/01/28 11:03:56;;;;;;;11.38;6.65;;;7.00;95.80;;;;;;4946547;29;20035;-76
2024/01/28 11:06:29;;;;;;;10.23;7.13;;;7.30;95.40;;;;;;4928566;29;20023;-75
2024/01/28 11:08:58;;;;;;;9.40;6.43;;;7.70;94.50;;;;;;4946608;29;20048;-76
2024/01/28 11:11:24;;;;;;;8.57;5.82;;;8.00;94.10;;;;;;4946198;29;20027;-76
2024/01/28 11:13:49;;;;;;;8.27;5.70;;;8.40;93.40;;;;;;4945491;29;20020;-76
2024/01/28 11:16:16;;;;;;;8.63;6.28;;;8.60;92.40;;;;;;4945851;29;20030;-75
2024/01/28 11:18:55;;;;;;;8.45;6.05;;;9.00;92.00;;;;;;4945309;29;20051;-74
2024/01/28 11:21:22;;;;;;;9.57;5.60;;;9.50;91.00;;;;;;4946001;29;20035;-74
2024/01/28 11:23:48;;;;;;;8.13;5.10;;;10.00;90.80;;;;;;4944413;29;20212;-76
2024/01/28 11:26:18;;;;;;;8.48;5.72;;;10.60;89.70;;;;;;4946103;29;20031;-75
2024/01/28 11:28:48;;;;;;;10.35;6.57;;;11.20;86.80;;;;;;4945145;29;20044;-75
2024/01/28 11:31:23;;;;;;;7.78;5.47;;;11.60;84.40;;;;;;4928885;29;20066;-77
2024/01/28 11:33:49;;;;;;;8.23;5.43;;;12.10;81.10;;;;;;4927876;29;20058;-76
2024/01/28 11:36:23;;;;;;;8.02;5.20;;;12.50;80.10;;;;;;4945729;29;20023;-76
2024/01/28 11:38:54;;;;;;;6.78;4.68;;;13.00;78.90;;;;;;4944905;29;20043;-77
2024/01/28 11:41:22;;;;;;;6.68;4.47;;;13.50;76.90;;;;;;4945827;29;20055;-74
2024/01/28 11:44:22;;;;;;;5.32;3.60;;;13.90;73.80;;;;;;4945112;29;20035;-77
2024/01/28 11:50:35;;;;;;;4.00;2.70;;;15.50;68.60;;;;;;4944497;29;20019;-74
2024/01/28 11:53:01;;;;;;;4.97;2.72;;;16.20;65.70;;;;;;4944668;29;20036;-75
2024/01/28 11:55:26;;;;;;;4.43;2.80;;;16.90;64.10;;;;;;4945049;29;20079;-76
2024/01/28 11:57:52;;;;;;;6.15;2.80;;;17.60;62.90;;;;;;4945183;29;20027;-74
2024/01/28 12:00:18;;;;;;;5.72;3.20;;;18.20;60.50;;;;;;4945004;29;20107;-75
2024/01/28 12:02:50;;;;;;;5.22;3.10;;;18.40;59.90;;;;;;4928104;29;20031;-75
2024/01/28 12:05:15;;;;;;;4.78;2.80;;;18.90;59.60;;;;;;4928519;29;20051;-75
2024/01/28 12:07:41;;;;;;;5.03;2.85;;;19.30;58.30;;;;;;4944798;29;20325;-75
2024/01/28 12:10:23;;;;;;;3.80;2.72;;;19.50;58.10;;;;;;4944936;29;20250;-75
2024/01/28 12:12:55;;;;;;;4.63;2.95;;;19.80;57.20;;;;;;4944599;29;20032;-79
2024/01/28 12:15:27;;;;;;;5.55;2.85;;;20.40;57.40;;;;;;4945199;29;20103;-79
2024/01/28 12:17:59;;;;;;;3.60;2.78;;;20.90;56.10;;;;;;4944378;29;20035;-77
2024/01/28 12:20:28;;;;;;;3.92;3.03;;;21.40;55.00;;;;;;4928039;29;20290;-79
2024/01/28 12:22:54;;;;;;;4.47;2.88;;;21.50;54.60;;;;;;4945212;29;20040;-76
2024/01/28 12:25:37;;;;;;;4.20;2.75;;;21.20;53.60;;;;;;4912250;29;20229;-77
2024/01/28 12:28:06;;;;;;;4.15;2.80;;;21.50;53.70;;;;;;4926059;29;20019;-76
2024/01/28 12:30:34;;;;;;;5.47;2.58;;;21.50;52.80;;;;;;4944624;29;20071;-75
2024/01/28 12:33:01;;;;;;;3.42;2.58;;;21.10;52.90;;;;;;4945531;29;20102;-76
2024/01/28 12:35:27;;;;;;;5.00;2.83;;;21.30;53.50;;;;;;4944869;29;20267;-78
2024/01/28 12:37:53;;;;;;;4.53;2.92;;;21.90;52.70;;;;;;4944701;29;20043;-78
2024/01/28 12:40:18;;;;;;;4.50;2.80;;;22.10;51.40;;;;;;4943403;29;20258;-78
2024/01/28 12:42:44;;;;;;;4.40;2.40;;;22.70;51.60;;;;;;4943337;29;20038;-76